sensor_id;sensor_type;location;lat;lon;timestamp;P1;durP1;ratioP1;P2;durP2;ratioP2
70126;SDS011;57491;42.694;23.314;2023-06-26T00:01:54;26.92;;;18.33;;
70126;SDS011;57491;42.694;23.314;2023-06-26T00:04:21;27.00;;;18.02;;
70126;SDS011;57491;42.694;23.314;2023-06-26T00:06:49;25.95;;;16.58;;
70126;SDS011;57491;42.694;23.314;2023-06-26T00:09:16;24.27;;;16.50;;
70126;SDS011;57491;42.694;23.314;2023-06-26T00:11:43;26.73;;;17.83;;
70126;SDS011;57491;42.694;23.314;2023-06-26T00:14:12;22.52;;;17.00;;
70126;SDS011;57491;42.694;23.314;2023-06-26T00:16:39;23.02;;;15.15;;
70126;SDS011;57491;42.694;23.314;2023-06-26T00:19:08;21.13;;;15.30;;
70126;SDS011;57491;42.694;23.314;2023-06-26T00:21:35;23.60;;;17.05;;
70126;SDS011;57491;42.694;23.314;2023-06-26T00:24:02;22.58;;;16.25;;
70126;SDS011;57491;42.694;23.314;2023-06-26T00:26:29;22.40;;;15.80;;
70126;SDS011;57491;42.694;23.314;2023-06-26T00:28:57;22.48;;;15.60;;
70126;SDS011;57491;42.694;23.314;2023-06-26T00:31:25;24.02;;;15.40;;
70126;SDS011;57491;42.694;23.314;2023-06-26T00:33:52;18.67;;;14.82;;
70126;SDS011;57491;42.694;23.314;2023-06-26T00:36:19;22.95;;;14.95;;
70126;SDS011;57491;42.694;23.314;2023-06-26T00:38:48;20.48;;;14.82;;
70126;SDS011;57491;42.694;23.314;2023-06-26T00:41:16;20.48;;;14.93;;
70126;SDS011;57491;42.694;23.314;2023-06-26T00:43:43;19.85;;;14.50;;
70126;SDS011;57491;42.694;23.314;2023-06-26T00:46:11;21.00;;;14.70;;
70126;SDS011;57491;42.694;23.314;2023-06-26T00:48:41;20.10;;;15.02;;
70126;SDS011;57491;42.694;23.314;2023-06-26T00:51:09;20.98;;;15.57;;
70126;SDS011;57491;42.694;23.314;2023-06-26T00:56:04;21.48;;;16.35;;
70126;SDS011;57491;42.694;23.314;2023-06-26T00:58:32;21.00;;;14.77;;
70126;SDS011;57491;42.694;23.314;2023-06-26T01:00:59;20.55;;;15.30;;
70126;SDS011;57491;42.694;23.314;2023-06-26T01:03:28;20.55;;;14.13;;
70126;SDS011;57491;42.694;23.314;2023-06-26T01:05:57;17.30;;;14.10;;
70126;SDS011;57491;42.694;23.314;2023-06-26T01:08:26;19.75;;;14.05;;
70126;SDS011;57491;42.694;23.314;2023-06-26T01:10:54;19.25;;;14.10;;
70126;SDS011;57491;42.694;23.314;2023-06-26T01:13:21;20.98;;;15.05;;
70126;SDS011;57491;42.694;23.314;2023-06-26T01:15:50;18.77;;;13.93;;
70126;SDS011;57491;42.694;23.314;2023-06-26T01:18:18;17.38;;;13.27;;
70126;SDS011;57491;42.694;23.314;2023-06-26T01:20:45;17.95;;;13.85;;
70126;SDS011;57491;42.694;23.314;2023-06-26T01:23:17;18.58;;;13.20;;
70126;SDS011;57491;42.694;23.314;2023-06-26T01:25:55;16.08;;;13.10;;
70126;SDS011;57491;42.694;23.314;2023-06-26T01:28:28;21.63;;;13.80;;
70126;SDS011;57491;42.694;23.314;2023-06-26T01:30:56;17.50;;;13.48;;
70126;SDS011;57491;42.694;23.314;2023-06-26T01:33:25;18.98;;;13.35;;
70126;SDS011;57491;42.694;23.314;2023-06-26T01:35:52;17.13;;;12.77;;
70126;SDS011;57491;42.694;23.314;2023-06-26T01:38:20;18.88;;;14.55;;
70126;SDS011;57491;42.694;23.314;2023-06-26T01:40:48;18.85;;;13.73;;
70126;SDS011;57491;42.694;23.314;2023-06-26T01:43:21;16.67;;;13.18;;
70126;SDS011;57491;42.694;23.314;2023-06-26T01:45:57;19.27;;;13.98;;
70126;SDS011;57491;42.694;23.314;2023-06-26T01:48:31;16.67;;;13.02;;
70126;SDS011;57491;42.694;23.314;2023-06-26T01:51:05;17.73;;;13.98;;
70126;SDS011;57491;42.694;23.314;2023-06-26T01:53:36;20.05;;;13.63;;
70126;SDS011;57491;42.694;23.314;2023-06-26T01:56:08;18.00;;;14.45;;
70126;SDS011;57491;42.694;23.314;2023-06-26T01:58:39;19.10;;;13.75;;
70126;SDS011;57491;42.694;23.314;2023-06-26T02:01:11;22.30;;;14.45;;
70126;SDS011;57491;42.694;23.314;2023-06-26T02:03:39;16.77;;;13.10;;
70126;SDS011;57491;42.694;23.314;2023-06-26T02:06:06;20.48;;;14.27;;
70126;SDS011;57491;42.694;23.314;2023-06-26T02:08:33;18.63;;;13.68;;
70126;SDS011;57491;42.694;23.314;2023-06-26T02:11:03;18.33;;;13.55;;
70126;SDS011;57491;42.694;23.314;2023-06-26T02:13:30;20.70;;;14.18;;
70126;SDS011;57491;42.694;23.314;2023-06-26T02:15:57;15.77;;;13.55;;
70126;SDS011;57491;42.694;23.314;2023-06-26T02:18:25;18.88;;;13.75;;
70126;SDS011;57491;42.694;23.314;2023-06-26T02:20:53;17.08;;;13.68;;
70126;SDS011;57491;42.694;23.314;2023-06-26T02:23:20;19.27;;;14.38;;
70126;SDS011;57491;42.694;23.314;2023-06-26T02:25:47;20.23;;;15.95;;
70126;SDS011;57491;42.694;23.314;2023-06-26T02:28:14;21.98;;;15.00;;
70126;SDS011;57491;42.694;23.314;2023-06-26T02:30:41;22.90;;;15.73;;
70126;SDS011;57491;42.694;23.314;2023-06-26T02:33:09;20.40;;;15.88;;
70126;SDS011;57491;42.694;23.314;2023-06-26T02:35:37;21.50;;;15.45;;
70126;SDS011;57491;42.694;23.314;2023-06-26T02:38:04;22.65;;;16.90;;
70126;SDS011;57491;42.694;23.314;2023-06-26T02:40:31;24.02;;;16.48;;
70126;SDS011;57491;42.694;23.314;2023-06-26T02:42:59;21.23;;;16.33;;
70126;SDS011;57491;42.694;23.314;2023-06-26T02:45:26;21.85;;;16.23;;
70126;SDS011;57491;42.694;23.314;2023-06-26T02:47:53;22.17;;;17.85;;
70126;SDS011;57491;42.694;23.314;2023-06-26T02:50:20;21.92;;;17.33;;
70126;SDS011;57491;42.694;23.314;2023-06-26T02:52:49;22.33;;;17.02;;
70126;SDS011;57491;42.694;23.314;2023-06-26T02:55:18;23.08;;;18.15;;
70126;SDS011;57491;42.694;23.314;2023-06-26T02:57:46;26.13;;;17.58;;
70126;SDS011;57491;42.694;23.314;2023-06-26T03:00:14;24.45;;;17.98;;
70126;SDS011;57491;42.694;23.314;2023-06-26T03:02:41;25.17;;;18.58;;
70126;SDS011;57491;42.694;23.314;2023-06-26T03:05:08;23.02;;;19.02;;
70126;SDS011;57491;42.694;23.314;2023-06-26T03:07:35;24.35;;;18.90;;
70126;SDS011;57491;42.694;23.314;2023-06-26T03:10:04;23.90;;;17.77;;
70126;SDS011;57491;42.694;23.314;2023-06-26T03:12:32;24.13;;;17.55;;
70126;SDS011;57491;42.694;23.314;2023-06-26T03:14:59;21.40;;;17.55;;
70126;SDS011;57491;42.694;23.314;2023-06-26T03:17:26;26.52;;;17.95;;
70126;SDS011;57491;42.694;23.314;2023-06-26T03:19:53;25.38;;;18.50;;
70126;SDS011;57491;42.694;23.314;2023-06-26T03:22:20;25.35;;;18.52;;
70126;SDS011;57491;42.694;23.314;2023-06-26T03:24:47;27.85;;;19.90;;
70126;SDS011;57491;42.694;23.314;2023-06-26T03:27:16;25.80;;;19.95;;
70126;SDS011;57491;42.694;23.314;2023-06-26T03:29:43;26.40;;;19.17;;
70126;SDS011;57491;42.694;23.314;2023-06-26T03:32:10;27.63;;;19.45;;
70126;SDS011;57491;42.694;23.314;2023-06-26T03:34:37;24.45;;;18.48;;
70126;SDS011;57491;42.694;23.314;2023-06-26T03:37:05;25.85;;;19.98;;
70126;SDS011;57491;42.694;23.314;2023-06-26T03:39:32;26.27;;;19.38;;
70126;SDS011;57491;42.694;23.314;2023-06-26T03:41:59;27.90;;;19.67;;
70126;SDS011;57491;42.694;23.314;2023-06-26T03:44:28;24.23;;;19.20;;
70126;SDS011;57491;42.694;23.314;2023-06-26T03:46:55;24.42;;;18.90;;
70126;SDS011;57491;42.694;23.314;2023-06-26T03:49:23;27.17;;;20.40;;
70126;SDS011;57491;42.694;23.314;2023-06-26T03:51:50;24.02;;;18.23;;
70126;SDS011;57491;42.694;23.314;2023-06-26T03:54:17;26.25;;;19.23;;
70126;SDS011;57491;42.694;23.314;2023-06-26T03:56:44;26.30;;;19.38;;
70126;SDS011;57491;42.694;23.314;2023-06-26T03:59:11;24.63;;;19.83;;
70126;SDS011;57491;42.694;23.314;2023-06-26T04:08:07;26.30;;;19.83;;
70126;SDS011;57491;42.694;23.314;2023-06-26T04:10:35;23.25;;;18.42;;
70126;SDS011;57491;42.694;23.314;2023-06-26T04:13:02;22.35;;;18.67;;
70126;SDS011;57491;42.694;23.314;2023-06-26T04:15:29;24.30;;;18.67;;
70126;SDS011;57491;42.694;23.314;2023-06-26T04:17:56;24.07;;;17.60;;
70126;SDS011;57491;42.694;23.314;2023-06-26T04:20:24;26.25;;;18.00;;
70126;SDS011;57491;42.694;23.314;2023-06-26T04:22:51;22.47;;;18.67;;
70126;SDS011;57491;42.694;23.314;2023-06-26T04:25:19;23.13;;;17.40;;
70126;SDS011;57491;42.694;23.314;2023-06-26T04:27:46;25.10;;;17.77;;
70126;SDS011;57491;42.694;23.314;2023-06-26T04:30:14;20.38;;;16.65;;
70126;SDS011;57491;42.694;23.314;2023-06-26T04:32:41;22.42;;;17.45;;
70126;SDS011;57491;42.694;23.314;2023-06-26T04:35:08;29.10;;;17.63;;
70126;SDS011;57491;42.694;23.314;2023-06-26T04:37:36;25.15;;;17.95;;
70126;SDS011;57491;42.694;23.314;2023-06-26T04:40:04;21.17;;;16.35;;
70126;SDS011;57491;42.694;23.314;2023-06-26T04:42:36;20.15;;;16.88;;
70126;SDS011;57491;42.694;23.314;2023-06-26T04:45:03;19.63;;;16.80;;
70126;SDS011;57491;42.694;23.314;2023-06-26T04:47:31;19.60;;;16.42;;
70126;SDS011;57491;42.694;23.314;2023-06-26T04:49:58;22.58;;;17.98;;
70126;SDS011;57491;42.694;23.314;2023-06-26T04:52:25;20.15;;;17.17;;
70126;SDS011;57491;42.694;23.314;2023-06-26T04:54:52;20.92;;;16.95;;
70126;SDS011;57491;42.694;23.314;2023-06-26T04:57:19;19.88;;;16.65;;
70126;SDS011;57491;42.694;23.314;2023-06-26T04:59:47;20.70;;;17.23;;
70126;SDS011;57491;42.694;23.314;2023-06-26T05:02:15;20.58;;;15.88;;
70126;SDS011;57491;42.694;23.314;2023-06-26T05:04:42;18.45;;;16.45;;
70126;SDS011;57491;42.694;23.314;2023-06-26T05:07:09;19.77;;;15.93;;
70126;SDS011;57491;42.694;23.314;2023-06-26T05:09:36;24.90;;;17.98;;
70126;SDS011;57491;42.694;23.314;2023-06-26T05:12:03;23.92;;;17.30;;
70126;SDS011;57491;42.694;23.314;2023-06-26T05:14:31;24.52;;;17.25;;
70126;SDS011;57491;42.694;23.314;2023-06-26T05:16:59;23.00;;;18.80;;
70126;SDS011;57491;42.694;23.314;2023-06-26T05:19:26;23.08;;;18.23;;
70126;SDS011;57491;42.694;23.314;2023-06-26T05:21:54;23.02;;;17.38;;
70126;SDS011;57491;42.694;23.314;2023-06-26T05:24:22;24.52;;;17.63;;
70126;SDS011;57491;42.694;23.314;2023-06-26T05:26:50;20.80;;;17.20;;
70126;SDS011;57491;42.694;23.314;2023-06-26T05:29:18;22.38;;;15.57;;
70126;SDS011;57491;42.694;23.314;2023-06-26T05:31:45;17.92;;;14.90;;
70126;SDS011;57491;42.694;23.314;2023-06-26T05:34:17;18.33;;;16.40;;
70126;SDS011;57491;42.694;23.314;2023-06-26T05:36:50;23.05;;;19.38;;
70126;SDS011;57491;42.694;23.314;2023-06-26T05:39:18;21.35;;;16.40;;
70126;SDS011;57491;42.694;23.314;2023-06-26T05:41:45;21.75;;;14.98;;
70126;SDS011;57491;42.694;23.314;2023-06-26T05:44:13;18.05;;;15.65;;
70126;SDS011;57491;42.694;23.314;2023-06-26T05:46:40;17.25;;;15.25;;
70126;SDS011;57491;42.694;23.314;2023-06-26T05:49:07;20.25;;;15.30;;
70126;SDS011;57491;42.694;23.314;2023-06-26T05:51:35;17.17;;;15.02;;
70126;SDS011;57491;42.694;23.314;2023-06-26T05:54:03;18.70;;;15.73;;
70126;SDS011;57491;42.694;23.314;2023-06-26T05:56:31;20.10;;;14.93;;
70126;SDS011;57491;42.694;23.314;2023-06-26T05:58:59;18.45;;;15.73;;
70126;SDS011;57491;42.694;23.314;2023-06-26T06:01:28;17.17;;;15.35;;
70126;SDS011;57491;42.694;23.314;2023-06-26T06:03:55;17.63;;;14.80;;
70126;SDS011;57491;42.694;23.314;2023-06-26T06:06:22;17.48;;;13.80;;
70126;SDS011;57491;42.694;23.314;2023-06-26T06:08:50;18.38;;;14.38;;
70126;SDS011;57491;42.694;23.314;2023-06-26T06:11:18;15.88;;;13.90;;
70126;SDS011;57491;42.694;23.314;2023-06-26T06:16:12;15.50;;;13.85;;
70126;SDS011;57491;42.694;23.314;2023-06-26T06:18:39;15.38;;;13.65;;
70126;SDS011;57491;42.694;23.314;2023-06-26T06:21:06;17.20;;;14.13;;
70126;SDS011;57491;42.694;23.314;2023-06-26T06:23:33;17.15;;;14.00;;
70126;SDS011;57491;42.694;23.314;2023-06-26T06:26:02;18.83;;;14.85;;
70126;SDS011;57491;42.694;23.314;2023-06-26T06:28:29;15.45;;;13.05;;
70126;SDS011;57491;42.694;23.314;2023-06-26T06:30:56;16.00;;;13.48;;
70126;SDS011;57491;42.694;23.314;2023-06-26T06:33:23;13.90;;;12.43;;
70126;SDS011;57491;42.694;23.314;2023-06-26T06:35:50;13.77;;;12.38;;
70126;SDS011;57491;42.694;23.314;2023-06-26T06:38:17;14.13;;;12.65;;
70126;SDS011;57491;42.694;23.314;2023-06-26T06:40:44;14.68;;;12.98;;
70126;SDS011;57491;42.694;23.314;2023-06-26T06:43:12;16.00;;;13.10;;
70126;SDS011;57491;42.694;23.314;2023-06-26T06:45:40;15.10;;;11.82;;
70126;SDS011;57491;42.694;23.314;2023-06-26T06:48:07;20.25;;;13.23;;
70126;SDS011;57491;42.694;23.314;2023-06-26T06:50:34;14.52;;;12.57;;
70126;SDS011;57491;42.694;23.314;2023-06-26T06:53:01;15.27;;;12.15;;
70126;SDS011;57491;42.694;23.314;2023-06-26T06:55:28;14.63;;;11.02;;
70126;SDS011;57491;42.694;23.314;2023-06-26T06:57:55;13.63;;;12.23;;
70126;SDS011;57491;42.694;23.314;2023-06-26T07:00:23;13.73;;;10.65;;
70126;SDS011;57491;42.694;23.314;2023-06-26T07:02:51;11.98;;;10.70;;
70126;SDS011;57491;42.694;23.314;2023-06-26T07:05:18;11.40;;;10.18;;
70126;SDS011;57491;42.694;23.314;2023-06-26T07:07:45;11.70;;;10.15;;
70126;SDS011;57491;42.694;23.314;2023-06-26T07:12:40;12.00;;;9.98;;
70126;SDS011;57491;42.694;23.314;2023-06-26T07:15:07;11.68;;;10.20;;
70126;SDS011;57491;42.694;23.314;2023-06-26T07:17:36;14.05;;;10.45;;
70126;SDS011;57491;42.694;23.314;2023-06-26T07:20:05;11.23;;;9.93;;
70126;SDS011;57491;42.694;23.314;2023-06-26T07:22:33;14.18;;;10.02;;
70126;SDS011;57491;42.694;23.314;2023-06-26T07:25:01;10.93;;;9.70;;
70126;SDS011;57491;42.694;23.314;2023-06-26T07:27:29;12.02;;;10.20;;
70126;SDS011;57491;42.694;23.314;2023-06-26T07:29:56;13.63;;;9.52;;
70126;SDS011;57491;42.694;23.314;2023-06-26T07:32:23;10.93;;;9.82;;
70126;SDS011;57491;42.694;23.314;2023-06-26T07:34:51;9.77;;;8.77;;
70126;SDS011;57491;42.694;23.314;2023-06-26T07:37:19;11.18;;;8.68;;
70126;SDS011;57491;42.694;23.314;2023-06-26T07:39:46;8.50;;;7.70;;
70126;SDS011;57491;42.694;23.314;2023-06-26T07:44:41;9.35;;;7.60;;
70126;SDS011;57491;42.694;23.314;2023-06-26T07:47:08;9.45;;;8.15;;
70126;SDS011;57491;42.694;23.314;2023-06-26T07:49:35;9.10;;;7.78;;
70126;SDS011;57491;42.694;23.314;2023-06-26T07:52:06;9.80;;;8.25;;
70126;SDS011;57491;42.694;23.314;2023-06-26T07:54:35;9.70;;;8.27;;
70126;SDS011;57491;42.694;23.314;2023-06-26T07:57:03;11.30;;;8.57;;
70126;SDS011;57491;42.694;23.314;2023-06-26T07:59:32;9.18;;;8.27;;
70126;SDS011;57491;42.694;23.314;2023-06-26T08:04:27;10.95;;;7.50;;
70126;SDS011;57491;42.694;23.314;2023-06-26T08:06:58;13.40;;;8.38;;
70126;SDS011;57491;42.694;23.314;2023-06-26T08:09:27;10.30;;;9.25;;
70126;SDS011;57491;42.694;23.314;2023-06-26T08:11:57;10.70;;;9.60;;
70126;SDS011;57491;42.694;23.314;2023-06-26T08:14:25;12.02;;;8.80;;
70126;SDS011;57491;42.694;23.314;2023-06-26T08:16:52;14.57;;;9.88;;
70126;SDS011;57491;42.694;23.314;2023-06-26T08:19:19;16.77;;;11.88;;
70126;SDS011;57491;42.694;23.314;2023-06-26T08:21:46;10.50;;;8.68;;
70126;SDS011;57491;42.694;23.314;2023-06-26T08:26:44;14.07;;;9.18;;
70126;SDS011;57491;42.694;23.314;2023-06-26T08:29:12;14.75;;;9.48;;
70126;SDS011;57491;42.694;23.314;2023-06-26T08:31:39;17.42;;;10.05;;
70126;SDS011;57491;42.694;23.314;2023-06-26T08:34:07;16.65;;;9.50;;
70126;SDS011;57491;42.694;23.314;2023-06-26T08:36:34;10.23;;;8.93;;
70126;SDS011;57491;42.694;23.314;2023-06-26T08:39:02;7.75;;;6.30;;
70126;SDS011;57491;42.694;23.314;2023-06-26T08:41:30;9.35;;;6.88;;
70126;SDS011;57491;42.694;23.314;2023-06-26T08:43:58;9.40;;;6.72;;
70126;SDS011;57491;42.694;23.314;2023-06-26T08:46:27;11.43;;;7.53;;
70126;SDS011;57491;42.694;23.314;2023-06-26T08:48:55;8.98;;;6.88;;
70126;SDS011;57491;42.694;23.314;2023-06-26T08:51:24;8.32;;;7.30;;
70126;SDS011;57491;42.694;23.314;2023-06-26T08:53:55;9.18;;;7.53;;
70126;SDS011;57491;42.694;23.314;2023-06-26T08:56:24;7.80;;;7.07;;
70126;SDS011;57491;42.694;23.314;2023-06-26T08:58:54;7.40;;;6.70;;
70126;SDS011;57491;42.694;23.314;2023-06-26T09:01:22;8.48;;;6.75;;
70126;SDS011;57491;42.694;23.314;2023-06-26T09:03:51;7.68;;;6.95;;
70126;SDS011;57491;42.694;23.314;2023-06-26T09:06:18;9.38;;;7.10;;
70126;SDS011;57491;42.694;23.314;2023-06-26T09:08:45;9.00;;;6.70;;
70126;SDS011;57491;42.694;23.314;2023-06-26T09:11:13;8.38;;;7.38;;
70126;SDS011;57491;42.694;23.314;2023-06-26T09:13:40;10.23;;;7.38;;
70126;SDS011;57491;42.694;23.314;2023-06-26T09:16:08;11.50;;;7.20;;
70126;SDS011;57491;42.694;23.314;2023-06-26T09:18:37;8.05;;;6.47;;
70126;SDS011;57491;42.694;23.314;2023-06-26T09:21:06;8.50;;;6.60;;
70126;SDS011;57491;42.694;23.314;2023-06-26T09:23:33;7.25;;;6.40;;
70126;SDS011;57491;42.694;23.314;2023-06-26T09:26:02;9.70;;;6.90;;
70126;SDS011;57491;42.694;23.314;2023-06-26T09:28:29;13.18;;;8.23;;
70126;SDS011;57491;42.694;23.314;2023-06-26T09:31:00;10.68;;;6.40;;
70126;SDS011;57491;42.694;23.314;2023-06-26T09:33:32;6.82;;;6.10;;
70126;SDS011;57491;42.694;23.314;2023-06-26T09:36:05;8.63;;;6.50;;
70126;SDS011;57491;42.694;23.314;2023-06-26T09:38:35;9.18;;;6.50;;
70126;SDS011;57491;42.694;23.314;2023-06-26T09:41:02;9.52;;;6.68;;
70126;SDS011;57491;42.694;23.314;2023-06-26T09:43:30;9.85;;;7.38;;
70126;SDS011;57491;42.694;23.314;2023-06-26T09:45:57;8.75;;;7.32;;
70126;SDS011;57491;42.694;23.314;2023-06-26T09:48:24;8.38;;;6.90;;
70126;SDS011;57491;42.694;23.314;2023-06-26T09:50:52;10.10;;;7.05;;
70126;SDS011;57491;42.694;23.314;2023-06-26T09:53:21;10.10;;;7.30;;
70126;SDS011;57491;42.694;23.314;2023-06-26T09:55:48;10.35;;;7.25;;
70126;SDS011;57491;42.694;23.314;2023-06-26T09:58:15;13.27;;;7.10;;
70126;SDS011;57491;42.694;23.314;2023-06-26T10:00:44;8.10;;;6.28;;
70126;SDS011;57491;42.694;23.314;2023-06-26T10:03:11;7.57;;;6.00;;
70126;SDS011;57491;42.694;23.314;2023-06-26T10:08:05;6.55;;;5.95;;
70126;SDS011;57491;42.694;23.314;2023-06-26T10:10:35;7.97;;;6.82;;
70126;SDS011;57491;42.694;23.314;2023-06-26T10:13:04;9.35;;;6.63;;
70126;SDS011;57491;42.694;23.314;2023-06-26T10:15:35;7.97;;;6.53;;
70126;SDS011;57491;42.694;23.314;2023-06-26T10:18:03;9.00;;;6.97;;
70126;SDS011;57491;42.694;23.314;2023-06-26T10:20:31;8.85;;;6.30;;
70126;SDS011;57491;42.694;23.314;2023-06-26T10:25:27;9.10;;;6.65;;
70126;SDS011;57491;42.694;23.314;2023-06-26T10:27:57;10.20;;;6.50;;
70126;SDS011;57491;42.694;23.314;2023-06-26T10:30:28;13.00;;;8.10;;
70126;SDS011;57491;42.694;23.314;2023-06-26T10:32:59;11.48;;;7.95;;
70126;SDS011;57491;42.694;23.314;2023-06-26T10:35:27;8.50;;;6.47;;
70126;SDS011;57491;42.694;23.314;2023-06-26T10:37:59;8.50;;;6.30;;
70126;SDS011;57491;42.694;23.314;2023-06-26T10:40:28;12.38;;;7.13;;
70126;SDS011;57491;42.694;23.314;2023-06-26T10:43:07;6.97;;;6.28;;
70126;SDS011;57491;42.694;23.314;2023-06-26T10:45:35;10.32;;;6.63;;
70126;SDS011;57491;42.694;23.314;2023-06-26T10:50:30;6.93;;;6.22;;
70126;SDS011;57491;42.694;23.314;2023-06-26T10:53:10;7.20;;;6.45;;
70126;SDS011;57491;42.694;23.314;2023-06-26T10:55:42;10.05;;;7.07;;
70126;SDS011;57491;42.694;23.314;2023-06-26T11:01:20;9.20;;;6.28;;
70126;SDS011;57491;42.694;23.314;2023-06-26T11:06:17;10.23;;;6.53;;
70126;SDS011;57491;42.694;23.314;2023-06-26T11:08:48;7.03;;;6.32;;
70126;SDS011;57491;42.694;23.314;2023-06-26T11:11:17;7.03;;;6.05;;
70126;SDS011;57491;42.694;23.314;2023-06-26T11:16:13;9.63;;;7.18;;
70126;SDS011;57491;42.694;23.314;2023-06-26T11:18:41;8.68;;;7.38;;
70126;SDS011;57491;42.694;23.314;2023-06-26T11:21:09;8.82;;;6.93;;
70126;SDS011;57491;42.694;23.314;2023-06-26T11:23:38;7.35;;;6.65;;
70126;SDS011;57491;42.694;23.314;2023-06-26T11:26:13;9.73;;;6.53;;
70126;SDS011;57491;42.694;23.314;2023-06-26T11:28:47;7.35;;;6.57;;
70126;SDS011;57491;42.694;23.314;2023-06-26T11:31:24;7.72;;;6.63;;
70126;SDS011;57491;42.694;23.314;2023-06-26T11:33:52;7.45;;;6.22;;
70126;SDS011;57491;42.694;23.314;2023-06-26T11:36:21;10.60;;;6.82;;
70126;SDS011;57491;42.694;23.314;2023-06-26T11:38:54;6.70;;;5.95;;
70126;SDS011;57491;42.694;23.314;2023-06-26T11:41:22;7.10;;;6.40;;
70126;SDS011;57491;42.694;23.314;2023-06-26T11:43:51;8.82;;;6.20;;
70126;SDS011;57491;42.694;23.314;2023-06-26T11:46:19;8.77;;;6.97;;
70126;SDS011;57491;42.694;23.314;2023-06-26T11:48:48;7.13;;;5.82;;
70126;SDS011;57491;42.694;23.314;2023-06-26T11:51:15;8.77;;;6.13;;
70126;SDS011;57491;42.694;23.314;2023-06-26T11:53:43;7.10;;;6.30;;
70126;SDS011;57491;42.694;23.314;2023-06-26T11:56:11;8.65;;;6.05;;
70126;SDS011;57491;42.694;23.314;2023-06-26T12:01:26;12.20;;;6.97;;
70126;SDS011;57491;42.694;23.314;2023-06-26T12:03:58;7.30;;;6.60;;
70126;SDS011;57491;42.694;23.314;2023-06-26T12:06:26;8.85;;;6.82;;
70126;SDS011;57491;42.694;23.314;2023-06-26T12:08:54;11.68;;;6.95;;
70126;SDS011;57491;42.694;23.314;2023-06-26T12:11:23;7.35;;;6.45;;
70126;SDS011;57491;42.694;23.314;2023-06-26T12:13:52;10.20;;;6.93;;
70126;SDS011;57491;42.694;23.314;2023-06-26T12:18:47;9.60;;;6.63;;
70126;SDS011;57491;42.694;23.314;2023-06-26T12:21:33;7.03;;;5.72;;
70126;SDS011;57491;42.694;23.314;2023-06-26T12:26:41;7.97;;;5.68;;
70126;SDS011;57491;42.694;23.314;2023-06-26T12:29:09;8.70;;;6.13;;
70126;SDS011;57491;42.694;23.314;2023-06-26T12:31:40;9.07;;;6.30;;
70126;SDS011;57491;42.694;23.314;2023-06-26T12:34:09;8.82;;;6.20;;
70126;SDS011;57491;42.694;23.314;2023-06-26T12:36:40;12.75;;;6.88;;
70126;SDS011;57491;42.694;23.314;2023-06-26T12:39:09;7.00;;;6.40;;
70126;SDS011;57491;42.694;23.314;2023-06-26T12:41:43;9.38;;;7.60;;
70126;SDS011;57491;42.694;23.314;2023-06-26T12:44:18;8.18;;;7.32;;
70126;SDS011;57491;42.694;23.314;2023-06-26T12:46:53;9.52;;;6.72;;
70126;SDS011;57491;42.694;23.314;2023-06-26T12:49:28;8.85;;;6.68;;
70126;SDS011;57491;42.694;23.314;2023-06-26T12:51:57;8.38;;;7.28;;
70126;SDS011;57491;42.694;23.314;2023-06-26T12:54:24;8.48;;;7.20;;
70126;SDS011;57491;42.694;23.314;2023-06-26T12:56:51;8.82;;;7.35;;
70126;SDS011;57491;42.694;23.314;2023-06-26T12:59:18;8.55;;;7.10;;
70126;SDS011;57491;42.694;23.314;2023-06-26T13:01:45;7.68;;;6.40;;
70126;SDS011;57491;42.694;23.314;2023-06-26T13:04:13;9.50;;;6.68;;
70126;SDS011;57491;42.694;23.314;2023-06-26T13:06:41;7.93;;;6.30;;
70126;SDS011;57491;42.694;23.314;2023-06-26T13:09:08;9.05;;;6.97;;
70126;SDS011;57491;42.694;23.314;2023-06-26T13:11:36;8.55;;;6.57;;
70126;SDS011;57491;42.694;23.314;2023-06-26T13:14:03;8.32;;;6.60;;
70126;SDS011;57491;42.694;23.314;2023-06-26T13:18:58;8.43;;;6.78;;
70126;SDS011;57491;42.694;23.314;2023-06-26T13:23:53;7.85;;;6.95;;
70126;SDS011;57491;42.694;23.314;2023-06-26T13:26:21;8.77;;;6.60;;
70126;SDS011;57491;42.694;23.314;2023-06-26T13:28:48;11.65;;;7.43;;
70126;SDS011;57491;42.694;23.314;2023-06-26T13:31:15;12.07;;;6.65;;
70126;SDS011;57491;42.694;23.314;2023-06-26T13:33:43;7.28;;;6.47;;
70126;SDS011;57491;42.694;23.314;2023-06-26T13:36:11;7.47;;;6.50;;
70126;SDS011;57491;42.694;23.314;2023-06-26T13:38:39;8.05;;;6.70;;
70126;SDS011;57491;42.694;23.314;2023-06-26T13:41:07;10.23;;;6.55;;
70126;SDS011;57491;42.694;23.314;2023-06-26T13:43:34;9.35;;;6.72;;
70126;SDS011;57491;42.694;23.314;2023-06-26T13:46:01;7.72;;;6.50;;
70126;SDS011;57491;42.694;23.314;2023-06-26T13:48:28;9.45;;;7.10;;
70126;SDS011;57491;42.694;23.314;2023-06-26T13:50:56;7.93;;;6.13;;
70126;SDS011;57491;42.694;23.314;2023-06-26T13:53:23;7.35;;;6.65;;
70126;SDS011;57491;42.694;23.314;2023-06-26T13:55:51;9.55;;;7.28;;
70126;SDS011;57491;42.694;23.314;2023-06-26T13:58:18;8.73;;;6.97;;
70126;SDS011;57491;42.694;23.314;2023-06-26T14:00:49;9.07;;;6.72;;
70126;SDS011;57491;42.694;23.314;2023-06-26T14:03:16;18.52;;;7.75;;
70126;SDS011;57491;42.694;23.314;2023-06-26T14:05:44;18.45;;;7.85;;
70126;SDS011;57491;42.694;23.314;2023-06-26T14:08:11;9.27;;;6.95;;
70126;SDS011;57491;42.694;23.314;2023-06-26T14:10:38;8.50;;;6.75;;
70126;SDS011;57491;42.694;23.314;2023-06-26T14:13:06;10.55;;;6.63;;
70126;SDS011;57491;42.694;23.314;2023-06-26T14:15:34;7.63;;;6.25;;
70126;SDS011;57491;42.694;23.314;2023-06-26T14:20:29;13.98;;;7.13;;
70126;SDS011;57491;42.694;23.314;2023-06-26T14:22:58;11.65;;;9.30;;
70126;SDS011;57491;42.694;23.314;2023-06-26T14:25:25;8.73;;;7.28;;
70126;SDS011;57491;42.694;23.314;2023-06-26T14:27:53;10.95;;;7.32;;
70126;SDS011;57491;42.694;23.314;2023-06-26T14:33:14;12.55;;;7.15;;
70126;SDS011;57491;42.694;23.314;2023-06-26T14:35:41;8.52;;;7.13;;
70126;SDS011;57491;42.694;23.314;2023-06-26T14:38:08;10.75;;;7.57;;
70126;SDS011;57491;42.694;23.314;2023-06-26T14:40:35;8.57;;;7.05;;
70126;SDS011;57491;42.694;23.314;2023-06-26T14:43:02;8.75;;;7.18;;
70126;SDS011;57491;42.694;23.314;2023-06-26T14:45:30;11.63;;;8.13;;
70126;SDS011;57491;42.694;23.314;2023-06-26T14:47:57;9.43;;;7.95;;
70126;SDS011;57491;42.694;23.314;2023-06-26T14:50:24;11.68;;;7.32;;
70126;SDS011;57491;42.694;23.314;2023-06-26T14:52:51;10.48;;;7.53;;
70126;SDS011;57491;42.694;23.314;2023-06-26T14:55:18;9.85;;;7.22;;
70126;SDS011;57491;42.694;23.314;2023-06-26T14:57:45;9.82;;;7.30;;
70126;SDS011;57491;42.694;23.314;2023-06-26T15:00:13;13.70;;;8.15;;
70126;SDS011;57491;42.694;23.314;2023-06-26T15:02:42;11.93;;;7.00;;
70126;SDS011;57491;42.694;23.314;2023-06-26T15:05:09;11.70;;;7.18;;
70126;SDS011;57491;42.694;23.314;2023-06-26T15:07:36;15.55;;;8.10;;
70126;SDS011;57491;42.694;23.314;2023-06-26T15:10:04;13.18;;;7.50;;
70126;SDS011;57491;42.694;23.314;2023-06-26T15:12:32;11.10;;;7.00;;
70126;SDS011;57491;42.694;23.314;2023-06-26T15:14:59;10.88;;;6.63;;
70126;SDS011;57491;42.694;23.314;2023-06-26T15:17:26;10.68;;;6.40;;
70126;SDS011;57491;42.694;23.314;2023-06-26T15:19:55;8.27;;;6.70;;